Lilesville, NC

4:17 AM EST on December 22, 2014 (GMT -0500)
Anson County | Change Station
CLOSE
Current Station
Airport
Location: Wadesboro,
Elevation: 299 ft
Nearby Weather Stations

Elev 299 ft 35.02 °N, 80.08 °W | Updated 22 minutes ago

Rain
Rain
41 °F
Feels Like 36 °F
N
9
Wind Variable Wind from North

Today
High -- | Low -- °F
--% Chance of Precip.
Yesterday
High -- | Low -- °F
Precip. -- in
7:24 AM 5:12 PM
New Moon, 0% visible
Pressure 30.11 in
Visibility 4.0 miles
Clouds Scattered Clouds 500 ft
Mostly Cloudy 2400 ft
Overcast 4300 ft
Windchill 36 °F
Dew Point 40 °F
Humidity 95%
Rainfall 0.29 in
Snow Depth Not available.
UV 0 out of 12
Pollen .30 out of 12
Air Quality Not available.
Flu Activity Not available.
METAR KAFP 220855Z AUTO 01008KT 4SM DZ SCT005 BKN024 OVC043 05/05 A3011 RMK AO2 P0002 60015 T00520045

More Conditions Fewer Conditions

Pressure 30.11 in
Visibility 4.0 miles
Clouds Scattered Clouds 500 ft
Mostly Cloudy 2400 ft
Overcast 4300 ft
Windchill 36 °F
Dew Point 40 °F
Humidity 95%
Rainfall 0.29 in
Snow Depth Not available.
UV 0 out of 12
Pollen .30 out of 12
Air Quality Not available.
Flu Activity Not available.
METAR KAFP 220855Z AUTO 01008KT 4SM DZ SCT005 BKN024 OVC043 05/05 A3011 RMK AO2 P0002 60015 T00520045

More Conditions Fewer Conditions

10-Day Weather Forecast

Almanac

Astronomy

Dec. 22, 2014 Rise Set
Actual Time
Civil Twilight
Nautical Twilight
Astronomical Twilight
Moon
Length of Visible Light
Length of Day
Tomorrow will be .
, % of the Moon is Illuminated

Today's Extremes

State Highs State Lows

Community

WunderPhotos

Upload Photos

1,779,580 photos uploaded!

WunderBlogs® & News

Nearby

Air Quality

  Air Quality AQ Index Pollutant
Not available.

Snow Depth

Station Depth Elevation

Earthquake Activity

City Distance Mag. Time & Date
Minimum magnitude displayed is 2.5.

Coastal Water Temperatures

Place Temperature

Nearby Weather Stations